createdAt,value
2018-03-24T00:00:17.979Z,59.36
2018-03-24T00:01:17.979Z,59.46
2018-03-24T00:02:17.988Z,58.98
2018-03-24T00:03:18.031Z,59.08
2018-03-24T00:04:18.048Z,59.08
2018-03-24T00:05:18.015Z,59.17
2018-03-24T00:06:18.015Z,59.46
2018-03-24T00:07:18.018Z,59.55
2018-03-24T00:08:18.060Z,59.08
2018-03-24T00:09:18.038Z,58.98
2018-03-24T00:10:18.084Z,59.17
2018-03-24T00:11:18.048Z,58.89
2018-03-24T00:12:18.060Z,58.70
2018-03-24T00:13:18.063Z,59.27
2018-03-24T00:14:18.109Z,58.89
2018-03-24T00:15:18.075Z,59.08
2018-03-24T00:16:18.108Z,58.98
2018-03-24T00:17:18.129Z,58.70
2018-03-24T00:18:18.107Z,59.27
2018-03-24T00:19:18.160Z,58.32
2018-03-24T00:20:18.156Z,58.61
2018-03-24T00:21:18.124Z,58.41
2018-03-24T00:22:18.123Z,58.51
2018-03-24T00:23:18.127Z,58.32
2018-03-24T00:24:18.129Z,58.61
2018-03-24T00:25:18.138Z,58.51
2018-03-24T00:26:18.181Z,58.98
2018-03-24T00:27:18.150Z,58.89
2018-03-24T00:28:18.191Z,58.51
2018-03-24T00:29:18.225Z,58.89
2018-03-24T00:30:18.173Z,59.08
2018-03-24T00:31:18.180Z,58.80
2018-03-24T00:32:18.218Z,59.36
2018-03-24T00:33:18.249Z,59.65
2018-03-24T00:34:18.198Z,58.89
2018-03-24T00:35:18.205Z,58.98
2018-03-24T00:36:18.226Z,59.17
2018-03-24T00:37:18.219Z,58.13
2018-03-24T00:38:18.222Z,58.13
2018-03-24T00:39:18.267Z,57.75
2018-03-24T00:40:18.243Z,57.94
2018-03-24T00:41:18.247Z,57.84
2018-03-24T00:42:18.273Z,58.32
2018-03-24T00:43:18.262Z,58.70
2018-03-24T00:44:18.274Z,58.89
2018-03-24T00:45:18.311Z,57.94
2018-03-24T00:46:18.268Z,58.13
2018-03-24T00:47:18.284Z,57.75
2018-03-24T00:48:18.295Z,58.03
2018-03-24T00:49:18.294Z,58.13
2018-03-24T00:50:18.328Z,57.84
2018-03-24T00:51:18.307Z,57.75
2018-03-24T00:52:18.360Z,57.84
2018-03-24T00:53:18.325Z,57.94
2018-03-24T00:54:18.325Z,58.32
2018-03-24T00:55:18.330Z,58.32
2018-03-24T00:56:18.343Z,57.84
2018-03-24T00:57:18.347Z,57.84
2018-03-24T00:58:18.402Z,57.65
2018-03-24T00:59:18.359Z,57.65
2018-03-24T01:00:18.369Z,56.89
2018-03-24T01:01:18.371Z,58.03
2018-03-24T01:02:18.376Z,57.84
2018-03-24T01:03:18.387Z,57.84
2018-03-24T01:04:18.429Z,58.03
2018-03-24T01:05:18.400Z,57.84
2018-03-24T01:06:18.407Z,57.75
2018-03-24T01:07:18.460Z,57.84
2018-03-24T01:08:18.424Z,58.03
2018-03-24T01:09:18.423Z,58.22
2018-03-24T01:10:18.434Z,58.13
2018-03-24T01:11:18.440Z,57.84
2018-03-24T01:12:18.448Z,58.32
2018-03-24T01:13:18.474Z,58.22
2018-03-24T01:14:18.458Z,58.22
2018-03-24T01:15:18.530Z,58.13
2018-03-24T01:16:18.501Z,58.03
2018-03-24T01:17:18.478Z,57.65
2018-03-24T01:18:18.507Z,57.84
2018-03-24T01:19:18.489Z,57.84
2018-03-24T01:20:18.490Z,58.32
2018-03-24T01:21:18.501Z,58.89
2018-03-24T01:22:18.604Z,58.80
2018-03-24T01:23:18.511Z,58.80
2018-03-24T01:24:18.525Z,58.61
2018-03-24T01:25:18.568Z,58.89
2018-03-24T01:26:18.525Z,57.84
2018-03-24T01:27:18.536Z,58.13
2018-03-24T01:28:18.609Z,58.22
2018-03-24T01:29:18.570Z,57.75
2018-03-24T01:30:18.562Z,57.84
2018-03-24T01:31:18.560Z,58.13
2018-03-24T01:32:18.596Z,57.84
2018-03-24T01:33:18.573Z,58.89
2018-03-24T01:34:18.605Z,59.08
2018-03-24T01:35:18.609Z,58.98
2018-03-24T01:36:18.630Z,58.89
2018-03-24T01:37:18.629Z,58.98
2018-03-24T01:38:18.610Z,58.98
2018-03-24T01:39:18.611Z,58.22
2018-03-24T01:40:18.629Z,58.03
2018-03-24T01:41:18.630Z,58.13
2018-03-24T01:42:18.632Z,58.13
2018-03-24T01:43:18.700Z,58.22
2018-03-24T01:44:18.636Z,58.80
2018-03-24T01:45:18.641Z,58.80
2018-03-24T01:46:18.667Z,58.80
2018-03-24T01:47:18.673Z,59.08
2018-03-24T01:48:18.666Z,58.98
2018-03-24T01:49:18.710Z,58.98
2018-03-24T01:50:18.675Z,59.27
2018-03-24T01:51:18.681Z,58.70
2018-03-24T01:52:18.691Z,58.80
2018-03-24T01:53:18.745Z,58.03
2018-03-24T01:54:18.705Z,58.22
2018-03-24T01:55:18.735Z,58.98
2018-03-24T01:56:18.715Z,58.89
2018-03-24T01:57:18.742Z,58.13
2018-03-24T01:58:18.731Z,56.80
2018-03-24T01:59:18.792Z,56.99
2018-03-24T02:00:18.742Z,58.03
2018-03-24T02:01:18.749Z,57.75
2018-03-24T02:02:18.756Z,58.03
2018-03-24T02:03:18.764Z,58.13
2018-03-24T02:04:18.770Z,58.13
2018-03-24T02:05:18.799Z,57.94
2018-03-24T02:06:18.818Z,57.65
2018-03-24T02:07:18.794Z,57.84
2018-03-24T02:08:18.818Z,58.03
2018-03-24T02:09:18.797Z,58.22
2018-03-24T02:10:18.806Z,58.03
2018-03-24T02:11:18.821Z,58.03
2018-03-24T02:12:18.861Z,58.03
2018-03-24T02:13:18.830Z,57.94
2018-03-24T02:14:18.830Z,57.84
2018-03-24T02:15:18.874Z,57.84
2018-03-24T02:16:18.845Z,58.22
2018-03-24T02:17:18.848Z,57.84
2018-03-24T02:18:18.931Z,57.94
2018-03-24T02:19:18.859Z,57.75
2018-03-24T02:20:18.879Z,58.03
2018-03-24T02:21:18.910Z,57.84
2018-03-24T02:22:18.910Z,57.94
2018-03-24T02:23:18.936Z,57.75
2018-03-24T02:24:18.892Z,57.75
2018-03-24T02:25:18.906Z,57.84
2018-03-24T02:26:18.907Z,57.46
2018-03-24T02:27:18.949Z,57.65
2018-03-24T02:28:18.917Z,57.84
2018-03-24T02:29:18.987Z,57.84
2018-03-24T02:30:18.930Z,57.94
2018-03-24T02:31:18.973Z,57.75
2018-03-24T02:32:18.943Z,57.65
2018-03-24T02:33:18.976Z,58.22
2018-03-24T02:34:18.958Z,58.03
2018-03-24T02:35:19.059Z,58.22
2018-03-24T02:36:18.992Z,58.22
2018-03-24T02:37:18.974Z,57.94
2018-03-24T02:38:19.006Z,58.03
2018-03-24T02:39:18.988Z,57.94
2018-03-24T02:40:19.017Z,58.22
2018-03-24T02:41:19.048Z,57.84
2018-03-24T02:42:19.034Z,56.99
2018-03-24T02:43:19.015Z,57.28
2018-03-24T02:44:19.023Z,57.65
2018-03-24T02:45:19.047Z,57.65
2018-03-24T02:46:19.036Z,58.03
2018-03-24T02:47:19.121Z,58.03
2018-03-24T02:48:19.048Z,58.22
2018-03-24T02:49:19.058Z,57.75
2018-03-24T02:50:19.059Z,57.94
2018-03-24T02:51:19.072Z,58.03
2018-03-24T02:52:19.077Z,57.84
2018-03-24T02:53:19.140Z,58.03
2018-03-24T02:54:19.099Z,57.94
2018-03-24T02:55:19.095Z,57.75
2018-03-24T02:56:19.099Z,57.75
2018-03-24T02:57:19.109Z,57.75
2018-03-24T02:58:19.166Z,57.65
2018-03-24T02:59:19.134Z,57.28
2018-03-24T03:00:19.130Z,57.09
2018-03-24T03:01:19.146Z,56.89
2018-03-24T03:02:19.140Z,57.28
2018-03-24T03:03:19.153Z,57.28
2018-03-24T03:04:19.222Z,56.99
2018-03-24T03:05:19.180Z,57.46
2018-03-24T03:06:19.165Z,57.28
2018-03-24T03:07:19.193Z,57.09
2018-03-24T03:08:19.182Z,57.56
2018-03-24T03:09:19.190Z,56.89
2018-03-24T03:10:19.209Z,57.37
2018-03-24T03:11:19.197Z,57.84
2018-03-24T03:12:19.260Z,58.13
2018-03-24T03:13:19.212Z,57.65
2018-03-24T03:14:19.219Z,57.94
2018-03-24T03:15:19.235Z,57.75
2018-03-24T03:16:19.235Z,57.84
2018-03-24T03:17:19.341Z,56.96
2018-03-24T03:18:19.284Z,57.15
2018-03-24T03:19:19.267Z,57.34
2018-03-24T03:20:19.257Z,57.91
2018-03-24T03:21:19.255Z,57.72
2018-03-24T03:22:19.325Z,57.62
2018-03-24T03:23:19.317Z,58.00
2018-03-24T03:24:19.289Z,57.91
2018-03-24T03:25:19.294Z,57.81
2018-03-24T03:26:19.312Z,57.91
2018-03-24T03:27:19.293Z,58.20
2018-03-24T03:28:19.314Z,57.72
2018-03-24T03:29:19.356Z,58.00
2018-03-24T03:30:19.328Z,58.20
2018-03-24T03:31:19.392Z,57.91
2018-03-24T03:32:19.336Z,58.39
2018-03-24T03:33:19.402Z,59.05
2018-03-24T03:34:19.335Z,58.86
2018-03-24T03:35:19.396Z,58.10
2018-03-24T03:36:19.347Z,58.29
2018-03-24T03:37:19.494Z,58.10
2018-03-24T03:38:19.369Z,59.24
2018-03-24T03:39:19.383Z,58.86
2018-03-24T03:40:19.374Z,58.67
2018-03-24T03:41:19.461Z,58.95
2018-03-24T03:42:19.401Z,58.76
2018-03-24T03:43:19.406Z,58.95
2018-03-24T03:44:19.421Z,59.14
2018-03-24T03:45:19.401Z,58.67
2018-03-24T03:46:19.413Z,59.24
2018-03-24T03:47:19.470Z,58.95
2018-03-24T03:48:19.427Z,59.14
2018-03-24T03:49:19.435Z,58.00
2018-03-24T03:50:19.433Z,59.05
2018-03-24T03:51:19.447Z,58.95
2018-03-24T03:52:19.496Z,58.86
2018-03-24T03:53:19.503Z,59.24
2018-03-24T03:54:19.474Z,58.95
2018-03-24T03:55:19.493Z,58.95
2018-03-24T03:56:19.500Z,58.95
2018-03-24T03:57:19.493Z,58.67
2018-03-24T03:58:19.495Z,58.58
2018-03-24T03:59:19.540Z,59.24
2018-03-24T04:00:19.520Z,59.24
2018-03-24T04:01:19.510Z,59.43
2018-03-24T04:02:19.526Z,59.33
2018-03-24T04:03:19.523Z,59.33
2018-03-24T04:04:19.526Z,58.86
2018-03-24T04:05:19.601Z,59.33
2018-03-24T04:06:19.544Z,58.95
2018-03-24T04:07:19.561Z,58.58
2018-03-24T04:08:19.562Z,59.05
2018-03-24T04:09:19.573Z,59.33
2018-03-24T04:10:19.582Z,59.62
2018-03-24T04:11:19.618Z,59.05
2018-03-24T04:12:19.585Z,59.05
2018-03-24T04:13:19.583Z,58.67
2018-03-24T04:14:19.594Z,58.95
2018-03-24T04:15:19.614Z,59.24
2018-03-24T04:16:19.608Z,59.05
2018-03-24T04:17:19.640Z,59.33
2018-03-24T04:18:19.637Z,59.81
2018-03-24T04:19:19.630Z,59.52
2018-03-24T04:20:19.657Z,59.43
2018-03-24T04:21:19.627Z,59.43
2018-03-24T04:22:19.644Z,59.52
2018-03-24T04:23:19.706Z,59.14
2018-03-24T04:24:19.659Z,59.14
2018-03-24T04:25:19.651Z,59.43
2018-03-24T04:26:19.689Z,59.43
2018-03-24T04:27:19.692Z,58.95
2018-03-24T04:28:19.693Z,59.14
2018-03-24T04:29:19.731Z,59.24
2018-03-24T04:30:19.683Z,59.52
2018-03-24T04:31:19.730Z,59.33
2018-03-24T04:32:19.698Z,59.43
2018-03-24T04:33:19.715Z,59.43
2018-03-24T04:34:19.742Z,59.43
2018-03-24T04:35:19.746Z,59.33
2018-03-24T04:36:19.730Z,59.91
2018-03-24T04:37:19.746Z,59.52
2018-03-24T04:38:19.744Z,59.52
2018-03-24T04:39:19.775Z,59.24
2018-03-24T04:40:19.753Z,59.43
2018-03-24T04:41:19.777Z,59.33
2018-03-24T04:42:19.754Z,59.33
2018-03-24T04:43:19.762Z,58.76
2018-03-24T04:44:19.794Z,59.05
2018-03-24T04:45:19.774Z,59.52
2018-03-24T04:46:19.818Z,59.62
2018-03-24T04:47:19.788Z,59.52
2018-03-24T04:48:19.814Z,59.33
2018-03-24T04:49:22.650Z,59.33
2018-03-24T04:50:19.802Z,59.62
2018-03-24T04:51:19.821Z,59.43
2018-03-24T04:52:19.863Z,59.33
2018-03-24T04:53:19.826Z,60.00
2018-03-24T04:54:19.831Z,59.43
2018-03-24T04:55:19.838Z,60.00
2018-03-24T04:56:19.883Z,60.00
2018-03-24T04:57:19.852Z,59.91
2018-03-24T04:58:19.852Z,59.52
2018-03-24T04:59:19.868Z,60.10
2018-03-24T05:00:19.879Z,59.43
2018-03-24T05:01:19.889Z,59.52
2018-03-24T05:02:19.930Z,60.00
2018-03-24T05:03:19.890Z,60.10
2018-03-24T05:04:19.888Z,60.00
2018-03-24T05:05:19.923Z,59.81
2018-03-24T05:06:19.970Z,60.10
2018-03-24T05:07:19.909Z,60.00
2018-03-24T05:08:19.912Z,60.28
2018-03-24T05:09:19.917Z,60.47
2018-03-24T05:10:19.929Z,60.19
2018-03-24T05:11:19.931Z,60.38
2018-03-24T05:12:19.992Z,60.28
2018-03-24T05:13:19.948Z,60.10
2018-03-24T05:14:19.964Z,60.00
2018-03-24T05:15:19.962Z,59.33
2018-03-24T05:16:19.967Z,59.71
2018-03-24T05:17:20.036Z,60.19
2018-03-24T05:18:19.980Z,59.43
2018-03-24T05:19:19.983Z,59.81
2018-03-24T05:20:19.995Z,60.00
2018-03-24T05:21:19.999Z,60.00
2018-03-24T05:22:20.009Z,60.00
2018-03-24T05:23:20.060Z,60.10
2018-03-24T05:24:20.021Z,59.91
2018-03-24T05:25:20.027Z,59.33
2018-03-24T05:26:20.043Z,59.71
2018-03-24T05:27:20.039Z,59.71
2018-03-24T05:28:20.046Z,60.10
2018-03-24T05:29:20.088Z,59.33
2018-03-24T05:30:20.053Z,59.33
2018-03-24T05:31:20.067Z,60.00
2018-03-24T05:32:20.075Z,59.91
2018-03-24T05:33:20.072Z,59.91
2018-03-24T05:34:20.088Z,60.00
2018-03-24T05:35:20.196Z,59.52
2018-03-24T05:36:20.091Z,59.52
2018-03-24T05:37:20.108Z,59.62
2018-03-24T05:38:20.105Z,59.62
2018-03-24T05:39:20.126Z,59.24
2018-03-24T05:40:20.114Z,59.62
2018-03-24T05:41:20.163Z,59.62
2018-03-24T05:42:20.205Z,60.00
2018-03-24T05:43:20.129Z,60.10
2018-03-24T05:44:20.157Z,59.91
2018-03-24T05:45:20.159Z,60.10
2018-03-24T05:46:20.151Z,59.91
2018-03-24T05:47:20.191Z,60.00
2018-03-24T05:48:20.153Z,59.91
2018-03-24T05:49:20.189Z,60.47
2018-03-24T05:50:20.190Z,60.47
2018-03-24T05:51:20.216Z,59.91
2018-03-24T05:52:20.184Z,59.91
2018-03-24T05:53:20.185Z,60.00
2018-03-24T05:54:20.198Z,59.91
2018-03-24T05:55:20.303Z,60.10
2018-03-24T05:56:20.224Z,59.91
2018-03-24T05:57:20.239Z,60.47
2018-03-24T05:58:20.216Z,60.38
2018-03-24T05:59:20.307Z,60.00
2018-03-24T06:00:20.244Z,59.52
2018-03-24T06:01:20.238Z,59.43
2018-03-24T06:02:20.244Z,59.43
2018-03-24T06:03:20.276Z,59.81
2018-03-24T06:04:20.261Z,60.47
2018-03-24T06:05:20.294Z,59.81
2018-03-24T06:06:20.279Z,60.00
2018-03-24T06:07:20.274Z,59.91
2018-03-24T06:08:20.306Z,60.00
2018-03-24T06:09:20.329Z,60.10
2018-03-24T06:10:20.293Z,60.00
2018-03-24T06:11:20.318Z,59.33
2018-03-24T06:12:20.309Z,59.33
2018-03-24T06:13:20.314Z,59.43
2018-03-24T06:14:20.333Z,59.71
2018-03-24T06:15:20.367Z,59.62
2018-03-24T06:16:20.335Z,59.43
2018-03-24T06:17:20.340Z,59.81
2018-03-24T06:18:20.348Z,60.10
2018-03-24T06:19:20.422Z,59.71
2018-03-24T06:20:20.361Z,59.91
2018-03-24T06:21:20.503Z,60.10
2018-03-24T06:22:20.418Z,60.00
2018-03-24T06:23:20.382Z,59.62
2018-03-24T06:24:20.386Z,59.91
2018-03-24T06:25:20.394Z,59.81
2018-03-24T06:26:20.414Z,59.91
2018-03-24T06:27:20.464Z,60.00
2018-03-24T06:28:20.425Z,59.43
2018-03-24T06:29:20.417Z,59.33
2018-03-24T06:30:20.422Z,60.19
2018-03-24T06:31:20.428Z,60.00
2018-03-24T06:32:20.480Z,59.43
2018-03-24T06:33:20.478Z,59.33
2018-03-24T06:34:20.450Z,59.43
2018-03-24T06:35:20.457Z,59.91
2018-03-24T06:36:20.460Z,60.10
2018-03-24T06:37:20.472Z,59.71
2018-03-24T06:38:20.472Z,59.33
2018-03-24T06:39:20.519Z,59.43
2018-03-24T06:40:20.490Z,59.43
2018-03-24T06:41:20.661Z,59.33
2018-03-24T06:42:20.519Z,59.43
2018-03-24T06:43:20.502Z,59.43
2018-03-24T06:44:20.509Z,59.62
2018-03-24T06:45:20.555Z,59.24
2018-03-24T06:46:20.547Z,59.62
2018-03-24T06:47:20.529Z,59.43
2018-03-24T06:48:20.537Z,59.81
2018-03-24T06:49:20.540Z,59.62
2018-03-24T06:50:20.540Z,59.33
2018-03-24T06:51:20.609Z,59.14
2018-03-24T06:52:20.556Z,59.52
2018-03-24T06:53:20.592Z,59.33
2018-03-24T06:54:20.569Z,59.33
2018-03-24T06:55:20.616Z,59.43
2018-03-24T06:56:20.580Z,59.33
2018-03-24T06:57:20.685Z,59.24
2018-03-24T06:58:20.595Z,59.43
2018-03-24T06:59:20.607Z,59.52
2018-03-24T07:00:20.629Z,59.43
2018-03-24T07:01:20.615Z,59.52
2018-03-24T07:02:20.667Z,59.43
2018-03-24T07:03:20.631Z,58.95
2018-03-24T07:04:20.664Z,59.33
2018-03-24T07:05:20.648Z,59.33
2018-03-24T07:06:20.656Z,59.43
2018-03-24T07:07:20.663Z,59.24
2018-03-24T07:08:20.697Z,59.55
2018-03-24T07:09:20.665Z,59.33
2018-03-24T07:10:20.675Z,59.43
2018-03-24T07:11:20.694Z,58.95
2018-03-24T07:12:20.693Z,58.95
2018-03-24T07:13:20.724Z,59.52
2018-03-24T07:14:20.732Z,59.43
2018-03-24T07:15:20.694Z,59.14
2018-03-24T07:16:20.707Z,58.86
2018-03-24T07:17:20.769Z,58.86
2018-03-24T07:18:20.741Z,59.14
2018-03-24T07:19:20.731Z,59.24
2018-03-24T07:20:20.751Z,58.95
2018-03-24T07:21:20.740Z,59.46
2018-03-24T07:22:20.755Z,59.05
2018-03-24T07:23:20.796Z,59.14
2018-03-24T07:24:20.761Z,59.14
2018-03-24T07:25:20.771Z,59.14
2018-03-24T07:26:21.011Z,59.46
2018-03-24T07:27:20.831Z,60.13
2018-03-24T07:28:20.780Z,59.46
2018-03-24T07:29:20.849Z,59.46
2018-03-24T07:30:20.797Z,59.65
2018-03-24T07:31:20.801Z,59.55
2018-03-24T07:32:20.830Z,59.55
2018-03-24T07:33:20.814Z,59.65
2018-03-24T07:34:20.850Z,59.46
2018-03-24T07:35:20.885Z,58.89
2018-03-24T07:36:20.853Z,59.17
2018-03-24T07:37:20.843Z,58.13
2018-03-24T07:38:20.854Z,58.80
2018-03-24T07:39:20.903Z,58.89
2018-03-24T07:40:20.860Z,59.17
2018-03-24T07:41:20.896Z,58.32
2018-03-24T07:42:20.883Z,58.32
2018-03-24T07:43:20.903Z,59.27
2018-03-24T07:44:21.077Z,58.32
2018-03-24T07:45:20.901Z,57.84
2018-03-24T07:46:20.922Z,58.13
2018-03-24T07:47:20.953Z,58.13
2018-03-24T07:48:20.930Z,57.94
2018-03-24T07:49:20.920Z,57.84
2018-03-24T07:50:20.935Z,57.46
2018-03-24T07:51:20.978Z,56.99
2018-03-24T07:52:20.954Z,57.37
2018-03-24T07:53:20.988Z,56.61
2018-03-24T07:54:20.973Z,57.18
2018-03-24T07:55:20.960Z,57.28
2018-03-24T07:56:20.982Z,56.80
2018-03-24T07:57:20.992Z,57.37
2018-03-24T07:58:20.992Z,57.11
2018-03-24T07:59:21.041Z,57.78
2018-03-24T08:00:21.019Z,57.78
2018-03-24T08:01:21.040Z,57.87
2018-03-24T08:02:21.016Z,57.78
2018-03-24T08:03:21.069Z,57.50
2018-03-24T08:04:21.024Z,56.63
2018-03-24T08:05:21.081Z,56.26
2018-03-24T08:06:21.052Z,56.92
2018-03-24T08:07:21.048Z,56.83
2018-03-24T08:08:21.140Z,56.45
2018-03-24T08:09:21.066Z,56.16
2018-03-24T08:10:21.072Z,55.97
2018-03-24T08:11:21.112Z,55.97
2018-03-24T08:12:21.129Z,56.63
2018-03-24T08:13:21.104Z,56.07
2018-03-24T08:14:21.144Z,56.16
2018-03-24T08:15:21.108Z,56.16
2018-03-24T08:16:21.125Z,55.97
2018-03-24T08:17:21.147Z,56.16
2018-03-24T08:18:21.160Z,56.07
2018-03-24T08:19:21.145Z,56.07
2018-03-24T08:20:21.127Z,56.35
2018-03-24T08:21:21.129Z,55.69
2018-03-24T08:22:21.142Z,55.69
2018-03-24T08:23:21.197Z,55.69
2018-03-24T08:24:21.150Z,55.88
2018-03-24T08:25:21.180Z,55.11
2018-03-24T08:26:21.176Z,55.59
2018-03-24T08:27:21.172Z,55.50
2018-03-24T08:28:21.175Z,54.93
2018-03-24T08:29:21.219Z,55.69
2018-03-24T08:30:21.220Z,55.50
2018-03-24T08:31:21.215Z,55.59
2018-03-24T08:32:21.208Z,54.96
2018-03-24T08:33:21.288Z,54.74
2018-03-24T08:34:21.219Z,54.55
2018-03-24T08:35:21.270Z,54.45
2018-03-24T08:36:21.238Z,54.07
2018-03-24T08:37:21.244Z,54.19
2018-03-24T08:38:21.253Z,54.86
2018-03-24T08:39:21.257Z,55.15
2018-03-24T08:40:21.312Z,55.52
2018-03-24T08:41:21.277Z,54.57
2018-03-24T08:42:21.335Z,54.38
2018-03-24T08:43:21.360Z,54.29
2018-03-24T08:44:21.331Z,54.38
2018-03-24T08:45:21.334Z,54.17
2018-03-24T08:46:21.358Z,54.00
2018-03-24T08:47:21.313Z,54.77
2018-03-24T08:48:21.362Z,55.33
2018-03-24T08:49:21.384Z,54.86
2018-03-24T08:50:21.348Z,55.81
2018-03-24T08:51:21.354Z,55.71
2018-03-24T08:52:21.401Z,55.71
2018-03-24T08:53:21.371Z,54.57
2018-03-24T08:54:21.358Z,54.10
2018-03-24T08:55:21.409Z,54.29
2018-03-24T08:56:21.386Z,54.00
2018-03-24T08:57:21.395Z,54.29
2018-03-24T08:58:21.451Z,53.53
2018-03-24T08:59:21.397Z,53.72
2018-03-24T09:00:21.513Z,52.86
2018-03-24T09:01:21.440Z,52.58
2018-03-24T09:02:21.416Z,52.48
2018-03-24T09:03:21.462Z,52.20
2018-03-24T09:04:21.480Z,51.91
2018-03-24T09:05:21.495Z,52.01
2018-03-24T09:06:21.450Z,52.58
2018-03-24T09:07:21.454Z,53.43
2018-03-24T09:08:21.456Z,53.81
2018-03-24T09:09:21.500Z,54.38
2018-03-24T09:10:21.530Z,54.19
2018-03-24T09:11:21.529Z,54.10
2018-03-24T09:12:21.492Z,54.41
2018-03-24T09:13:21.494Z,53.55
2018-03-24T09:14:21.509Z,53.55
2018-03-24T09:15:21.526Z,54.13
2018-03-24T09:16:21.544Z,53.94
2018-03-24T09:17:21.575Z,53.46
2018-03-24T09:18:21.535Z,52.89
2018-03-24T09:19:21.538Z,52.80
2018-03-24T09:20:21.573Z,52.98
2018-03-24T09:21:21.560Z,52.70
2018-03-24T09:22:21.644Z,52.41
2018-03-24T09:23:21.570Z,52.98
2018-03-24T09:24:21.575Z,52.98
2018-03-24T09:25:21.583Z,52.03
2018-03-24T09:26:21.677Z,52.03
2018-03-24T09:27:21.630Z,52.03
2018-03-24T09:28:21.649Z,52.51
2018-03-24T09:29:21.615Z,52.03
2018-03-24T09:30:21.666Z,52.51
2018-03-24T09:31:21.659Z,52.51
2018-03-24T09:32:21.636Z,52.89
2018-03-24T09:33:21.640Z,52.92
2018-03-24T09:34:21.720Z,52.53
2018-03-24T09:35:21.682Z,52.34
2018-03-24T09:36:21.702Z,52.06
2018-03-24T09:37:21.721Z,51.10
2018-03-24T09:38:21.692Z,51.30
2018-03-24T09:39:21.711Z,50.54
2018-03-24T09:40:21.712Z,50.70
2018-03-24T09:41:21.709Z,49.75
2018-03-24T09:42:21.806Z,50.23
2018-03-24T09:43:21.756Z,50.04
2018-03-24T09:44:21.728Z,50.89
2018-03-24T09:45:21.792Z,50.79
2018-03-24T09:46:21.751Z,50.89
2018-03-24T09:47:21.757Z,50.82
2018-03-24T09:48:21.829Z,51.58
2018-03-24T09:49:21.781Z,51.49
2018-03-24T09:50:21.793Z,50.82
2018-03-24T09:51:21.829Z,50.82
2018-03-24T09:52:21.857Z,50.35
2018-03-24T09:53:21.800Z,51.20
2018-03-24T09:54:21.814Z,51.10
2018-03-24T09:55:21.814Z,50.82
2018-03-24T09:56:21.830Z,51.78
2018-03-24T09:57:21.831Z,51.49
2018-03-24T09:58:21.882Z,51.20
2018-03-24T09:59:21.919Z,49.68
2018-03-24T10:00:22.417Z,49.40
2018-03-24T10:01:21.868Z,49.68
2018-03-24T10:02:21.885Z,49.77
2018-03-24T10:03:21.915Z,50.25
2018-03-24T10:04:21.882Z,50.25
2018-03-24T10:05:21.935Z,50.35
2018-03-24T10:06:21.978Z,50.92
2018-03-24T10:07:21.908Z,50.15
2018-03-24T10:08:21.916Z,50.25
2018-03-24T10:09:21.925Z,49.96
2018-03-24T10:10:21.970Z,50.06
2018-03-24T10:11:21.937Z,49.68
2018-03-24T10:12:21.981Z,49.87
2018-03-24T10:13:21.971Z,49.77
2018-03-24T10:14:22.026Z,49.96
2018-03-24T10:15:21.972Z,49.40
2018-03-24T10:16:21.995Z,49.87
2018-03-24T10:17:22.043Z,50.15
2018-03-24T10:18:21.992Z,50.06
2018-03-24T10:19:21.999Z,49.87
2018-03-24T10:20:22.043Z,50.15
2018-03-24T10:21:22.016Z,50.54
2018-03-24T10:22:22.032Z,50.54
2018-03-24T10:23:22.110Z,50.15
2018-03-24T10:24:22.058Z,49.68
2018-03-24T10:25:22.058Z,50.06
2018-03-24T10:26:22.053Z,49.68
2018-03-24T10:27:22.067Z,49.58
2018-03-24T10:28:22.117Z,50.06
2018-03-24T10:29:22.144Z,49.68
2018-03-24T10:30:22.089Z,49.49
2018-03-24T10:31:22.097Z,49.58
2018-03-24T10:32:22.104Z,49.68
2018-03-24T10:33:22.158Z,49.58
2018-03-24T10:34:22.124Z,49.11
2018-03-24T10:35:22.153Z,49.20
2018-03-24T10:36:22.133Z,49.30
2018-03-24T10:37:22.173Z,48.82
2018-03-24T10:38:22.174Z,49.49
2018-03-24T10:39:22.211Z,49.01
2018-03-24T10:40:22.163Z,48.54
2018-03-24T10:41:22.182Z,49.01
2018-03-24T10:42:22.190Z,49.40
2018-03-24T10:43:22.192Z,48.54
2018-03-24T10:44:22.198Z,48.92
2018-03-24T10:45:22.260Z,49.01
2018-03-24T10:46:22.222Z,49.30
2018-03-24T10:47:22.365Z,49.40
2018-03-24T10:48:22.252Z,49.11
2018-03-24T10:49:22.237Z,49.30
2018-03-24T10:50:22.285Z,48.25
2018-03-24T10:51:22.290Z,47.68
2018-03-24T10:52:22.329Z,48.73
2018-03-24T10:53:22.311Z,48.75
2018-03-24T10:54:22.276Z,49.01
2018-03-24T10:55:22.329Z,49.51
2018-03-24T10:56:22.336Z,48.44
2018-03-24T10:57:22.295Z,48.73
2018-03-24T10:58:22.306Z,48.06
2018-03-24T10:59:22.329Z,48.35
2018-03-24T11:00:22.367Z,47.68
2018-03-24T11:01:22.367Z,47.78
2018-03-24T11:02:22.353Z,48.54
2018-03-24T11:03:22.357Z,49.11
2018-03-24T11:04:22.407Z,48.56
2018-03-24T11:05:22.367Z,49.23
2018-03-24T11:06:22.415Z,47.71
2018-03-24T11:07:22.414Z,47.42
2018-03-24T11:08:22.406Z,47.02
2018-03-24T11:09:22.422Z,47.11
2018-03-24T11:10:22.419Z,47.87
2018-03-24T11:11:22.450Z,48.16
2018-03-24T11:12:22.516Z,47.78
2018-03-24T11:13:22.462Z,47.97
2018-03-24T11:14:22.474Z,48.06
2018-03-24T11:15:22.452Z,47.20
2018-03-24T11:16:22.465Z,47.58
2018-03-24T11:17:22.464Z,47.68
2018-03-24T11:18:22.543Z,47.97
2018-03-24T11:19:22.486Z,47.02
2018-03-24T11:20:22.488Z,47.04
2018-03-24T11:21:22.500Z,47.02
2018-03-24T11:22:22.533Z,47.13
2018-03-24T11:23:22.525Z,46.37
2018-03-24T11:24:22.626Z,46.75
2018-03-24T11:25:22.527Z,46.25
2018-03-24T11:26:22.537Z,46.25
2018-03-24T11:27:22.571Z,45.68
2018-03-24T11:28:22.581Z,46.83
2018-03-24T11:29:22.647Z,46.25
2018-03-24T11:30:22.616Z,46.35
2018-03-24T11:31:22.591Z,46.83
2018-03-24T11:32:22.611Z,47.02
2018-03-24T11:33:22.600Z,47.68
2018-03-24T11:34:22.664Z,47.04
2018-03-24T11:35:22.655Z,46.94
2018-03-24T11:36:22.641Z,47.42
2018-03-24T11:37:22.685Z,47.52
2018-03-24T11:38:22.641Z,47.52
2018-03-24T11:39:22.656Z,46.56
2018-03-24T11:40:22.719Z,46.56
2018-03-24T11:41:22.658Z,46.44
2018-03-24T11:42:22.666Z,47.13
2018-03-24T11:43:22.702Z,47.71
2018-03-24T11:44:22.689Z,48.27
2018-03-24T11:45:22.688Z,47.52
2018-03-24T11:46:22.735Z,47.04
2018-03-24T11:47:22.810Z,47.04
2018-03-24T11:48:22.770Z,46.37
2018-03-24T11:49:22.827Z,47.13
2018-03-24T11:50:22.735Z,46.09
2018-03-24T11:51:22.822Z,46.84
2018-03-24T11:52:22.865Z,45.99
2018-03-24T11:53:22.758Z,45.89
2018-03-24T11:54:22.777Z,45.80
2018-03-24T11:55:22.808Z,46.09
2018-03-24T11:56:22.776Z,47.11
2018-03-24T11:57:22.791Z,46.73
2018-03-24T11:58:22.886Z,46.44
2018-03-24T11:59:22.875Z,45.87
2018-03-24T12:00:22.855Z,46.15
2018-03-24T12:01:22.842Z,46.28
2018-03-24T12:02:22.921Z,46.75
2018-03-24T12:03:22.997Z,46.18
2018-03-24T12:04:22.876Z,46.28
2018-03-24T12:05:22.868Z,46.37
2018-03-24T12:06:22.886Z,45.49
2018-03-24T12:07:22.889Z,44.82
2018-03-24T12:08:22.984Z,45.78
2018-03-24T12:09:22.973Z,46.06
2018-03-24T12:10:22.997Z,46.06
2018-03-24T12:11:23.107Z,46.35
2018-03-24T12:12:22.974Z,45.80
2018-03-24T12:13:22.929Z,45.89
2018-03-24T12:14:23.001Z,45.80
2018-03-24T12:15:22.997Z,45.61
2018-03-24T12:16:23.030Z,45.51
2018-03-24T12:17:22.954Z,45.23
2018-03-24T12:18:23.005Z,45.42
2018-03-24T12:19:23.012Z,45.70
2018-03-24T12:20:23.000Z,46.09
2018-03-24T12:21:23.012Z,46.94
2018-03-24T12:22:23.015Z,47.32
2018-03-24T12:23:23.130Z,46.94
2018-03-24T12:24:23.088Z,46.84
2018-03-24T12:25:23.105Z,45.80
2018-03-24T12:26:23.096Z,45.42
2018-03-24T12:27:23.086Z,45.14
2018-03-24T12:28:23.056Z,45.63
2018-03-24T12:29:23.046Z,45.73
2018-03-24T12:30:23.064Z,44.96
2018-03-24T12:31:23.105Z,45.54
2018-03-24T12:32:23.107Z,45.35
2018-03-24T12:33:23.178Z,44.87
2018-03-24T12:34:23.118Z,45.44
2018-03-24T12:35:23.104Z,45.92
2018-03-24T12:36:23.210Z,45.25
2018-03-24T12:37:23.159Z,46.23
2018-03-24T12:38:23.140Z,45.65
2018-03-24T12:39:23.153Z,45.94
2018-03-24T12:40:23.204Z,46.99
2018-03-24T12:41:23.181Z,45.75
2018-03-24T12:42:23.198Z,45.28
2018-03-24T12:43:23.387Z,44.99
2018-03-24T12:44:23.207Z,44.80
2018-03-24T12:45:23.282Z,44.42
2018-03-24T12:46:23.255Z,45.47
2018-03-24T12:47:23.213Z,44.80
2018-03-24T12:48:23.223Z,44.60
2018-03-24T12:49:23.391Z,44.42
2018-03-24T12:50:23.319Z,44.42
2018-03-24T12:51:23.348Z,44.23
2018-03-24T12:52:23.251Z,43.46